Time;durP1;ratioP1;P1;durP2;ratioP2;P2;SDS_P1;SDS_P2;PMS_P1;PMS_P2;Temp;Humidity;BMP_temperature;BMP_pressure;BME280_temperature;BME280_humidity;BME280_pressure;Samples;Min_cycle;Max_cycle;Signal;HPM_P1;HPM_P2
2021/01/22 00:00:53;;;;;;;25.00;10.32;;;205.10;2022.40;;;;;;5132381;28;20030;-76
2021/01/22 00:03:20;;;;;;;22.05;10.15;;;205.10;1996.80;;;;;;5132878;27;20027;-74
2021/01/22 00:05:47;;;;;;;24.90;10.25;;;205.10;1996.80;;;;;;5131675;28;20059;-76
2021/01/22 00:08:13;;;;;;;17.05;8.38;;;205.10;1996.80;;;;;;5132478;27;20460;-76
2021/01/22 00:10:39;;;;;;;15.40;8.40;;;205.10;2022.40;;;;;;5134113;27;20072;-76
2021/01/22 00:13:04;;;;;;;19.48;9.23;;;205.10;2022.40;;;;;;5136771;27;20093;-75
2021/01/22 00:15:30;;;;;;;16.65;8.13;;;205.10;2022.40;;;;;;5136953;27;20027;-77
2021/01/22 00:17:57;;;;;;;44.25;8.57;;;205.10;2022.40;;;;;;5136333;27;20509;-76
2021/01/22 00:20:23;;;;;;;15.25;7.40;;;205.10;2022.40;;;;;;5135379;27;20047;-78
2021/01/22 00:22:49;;;;;;;30.48;7.65;;;205.00;2022.40;;;;;;5136510;27;20043;-76
2021/01/22 00:25:15;;;;;;;22.20;5.70;;;205.10;2022.40;;;;;;5135547;27;20076;-76
2021/01/22 00:27:41;;;;;;;12.48;6.50;;;205.10;2022.40;;;;;;5135252;27;20123;-74
2021/01/22 00:30:07;;;;;;;15.57;6.93;;;205.10;2022.40;;;;;;5136178;27;20107;-76
2021/01/22 00:32:33;;;;;;;25.70;10.25;;;205.00;2022.40;;;;;;5136196;27;20019;-76
2021/01/22 00:34:59;;;;;;;34.55;13.77;;;205.00;2022.40;;;;;;5134995;27;20027;-77
2021/01/22 00:37:25;;;;;;;39.50;15.50;;;205.00;2022.40;;;;;;5136671;27;20423;-76
2021/01/22 00:39:50;;;;;;;36.78;15.50;;;205.00;2022.40;;;;;;5134634;27;20415;-76
2021/01/22 00:42:16;;;;;;;35.13;13.15;;;205.00;2022.40;;;;;;5135067;27;20023;-76
2021/01/22 00:44:42;;;;;;;29.25;13.35;;;205.10;2022.40;;;;;;5134969;27;20026;-76
2021/01/22 00:47:08;;;;;;;17.55;9.20;;;205.00;2022.40;;;;;;5136451;27;20015;-75
2021/01/22 00:49:34;;;;;;;22.75;11.00;;;205.00;2022.40;;;;;;5136142;27;20039;-75
2021/01/22 00:51:59;;;;;;;24.33;11.25;;;205.00;2022.40;;;;;;5134475;27;20093;-76
2021/01/22 00:54:25;;;;;;;19.10;9.45;;;205.00;2022.40;;;;;;5134788;27;20497;-77
2021/01/22 00:56:51;;;;;;;15.75;7.57;;;205.00;2022.40;;;;;;5136215;27;20016;-74
2021/01/22 00:59:17;;;;;;;15.77;7.45;;;205.00;2022.40;;;;;;5135802;27;20039;-75
2021/01/22 01:01:43;;;;;;;11.52;6.65;;;205.00;2022.40;;;;;;5135232;27;20024;-75
2021/01/22 01:04:09;;;;;;;15.43;6.60;;;205.00;2022.40;;;;;;5135795;27;20020;-74
2021/01/22 01:06:34;;;;;;;12.60;5.70;;;205.00;2022.40;;;;;;5135445;27;20085;-76
2021/01/22 01:09:00;;;;;;;12.73;5.75;;;205.00;2022.40;;;;;;5135651;27;20081;-76
2021/01/22 01:11:28;;;;;;;12.57;5.88;;;205.00;2022.40;;;;;;5135795;27;20019;-75
2021/01/22 01:13:54;;;;;;;12.13;6.30;;;205.00;2022.40;;;;;;5135747;27;20058;-76
2021/01/22 01:16:20;;;;;;;18.30;8.65;;;204.90;2022.40;;;;;;5135882;27;20066;-75
2021/01/22 01:18:46;;;;;;;14.30;8.85;;;205.00;2022.40;;;;;;5134692;27;20034;-75
2021/01/22 01:21:12;;;;;;;18.17;9.45;;;204.90;2022.40;;;;;;5135004;27;20015;-77
2021/01/22 01:23:38;;;;;;;29.45;12.88;;;204.80;2048.00;;;;;;5135341;27;20045;-77
2021/01/22 01:26:04;;;;;;;32.28;15.52;;;204.80;2048.00;;;;;;5134472;27;20546;-76
2021/01/22 01:28:30;;;;;;;28.77;13.63;;;180.10;2048.00;;;;;;5134620;27;20027;-76
2021/01/22 01:30:56;;;;;;;29.55;13.77;;;180.10;2073.60;;;;;;5136723;27;20433;-73
2021/01/22 01:33:22;;;;;;;32.08;14.77;;;180.00;2073.60;;;;;;5135201;27;20045;-76
2021/01/22 01:35:51;;;;;;;31.75;15.52;;;180.00;2073.60;;;;;;5135289;27;20023;-86
2021/01/22 01:38:18;;;;;;;31.35;16.33;;;179.90;2073.60;;;;;;5136724;27;20479;-74
2021/01/22 01:40:45;;;;;;;36.75;17.95;;;179.90;2073.60;;;;;;5136611;27;20499;-75
2021/01/22 01:43:11;;;;;;;31.02;16.40;;;179.80;2073.60;;;;;;5135195;27;20064;-75
2021/01/22 01:45:39;;;;;;;28.02;14.52;;;179.80;2099.20;;;;;;5135131;27;20030;-75
2021/01/22 01:48:07;;;;;;;21.20;11.82;;;179.70;2099.20;;;;;;5135492;27;20015;-80
2021/01/22 01:50:34;;;;;;;24.10;11.45;;;179.60;2099.20;;;;;;5135241;27;20436;-79
2021/01/22 01:53:01;;;;;;;17.35;11.13;;;179.60;2099.20;;;;;;5136255;27;20019;-74
2021/01/22 01:55:27;;;;;;;22.55;10.63;;;179.50;2099.20;;;;;;5134937;27;20382;-73
2021/01/22 01:57:53;;;;;;;20.75;10.98;;;179.50;2124.80;;;;;;5135094;27;20466;-73
2021/01/22 02:00:20;;;;;;;20.50;10.77;;;179.60;2124.80;;;;;;5136162;27;20079;-76
2021/01/22 02:02:46;;;;;;;21.35;10.82;;;179.50;2124.80;;;;;;5136213;27;20027;-74
2021/01/22 02:05:12;;;;;;;23.42;11.30;;;179.50;2124.80;;;;;;5136199;27;20027;-74
2021/01/22 02:07:38;;;;;;;26.23;13.10;;;179.50;2124.80;;;;;;5135110;27;20026;-74
2021/01/22 02:10:05;;;;;;;23.30;13.52;;;179.40;2124.80;;;;;;5134640;27;20043;-76
2021/01/22 02:12:33;;;;;;;25.30;13.18;;;179.40;2124.80;;;;;;5135642;27;20023;-73
2021/01/22 02:15:00;;;;;;;26.58;13.50;;;179.40;2124.80;;;;;;5135950;27;20048;-74
2021/01/22 02:17:26;;;;;;;20.15;11.32;;;179.30;2124.80;;;;;;5134644;27;20498;-74
2021/01/22 02:20:19;;;;;;;18.08;10.20;;;179.30;2124.80;;;;;;5136045;27;20019;-73
2021/01/22 02:22:45;;;;;;;20.67;11.13;;;179.30;2124.80;;;;;;5134663;27;20031;-73
2021/01/22 02:25:13;;;;;;;19.60;11.00;;;179.30;2124.80;;;;;;5134578;27;20467;-73
2021/01/22 02:27:40;;;;;;;20.20;11.85;;;179.30;2124.80;;;;;;5134526;27;20027;-73
2021/01/22 02:30:07;;;;;;;19.92;10.68;;;179.20;2124.80;;;;;;5135861;27;20042;-73
2021/01/22 02:32:35;;;;;;;18.40;11.45;;;179.20;2124.80;;;;;;5133848;27;20030;-74
2021/01/22 02:35:09;;;;;;;19.83;11.77;;;179.20;2124.80;;;;;;5134421;27;20034;-73
2021/01/22 02:37:37;;;;;;;20.70;12.07;;;154.50;2150.40;;;;;;5117626;27;20122;-73
2021/01/22 02:40:08;;;;;;;23.10;13.07;;;154.50;2150.40;;;;;;5135551;27;20031;-73
2021/01/22 02:42:35;;;;;;;21.02;12.63;;;154.50;2150.40;;;;;;5134213;27;20027;-73
2021/01/22 02:45:02;;;;;;;27.48;14.02;;;154.40;2150.40;;;;;;5135504;27;20025;-73
2021/01/22 02:47:28;;;;;;;25.08;12.73;;;154.40;2150.40;;;;;;5135449;27;20024;-73
2021/01/22 02:49:54;;;;;;;22.23;12.83;;;154.40;2150.40;;;;;;5135273;27;20039;-73
2021/01/22 02:52:20;;;;;;;26.02;14.73;;;154.40;2150.40;;;;;;5135404;27;20379;-73
2021/01/22 02:54:50;;;;;;;32.67;15.73;;;154.30;2176.00;;;;;;5135557;27;20019;-74
2021/01/22 02:57:19;;;;;;;29.97;14.80;;;154.10;2176.00;;;;;;5133853;27;20023;-73
2021/01/22 02:59:55;;;;;;;30.93;16.00;;;154.20;2176.00;;;;;;5133750;27;20058;-73
2021/01/22 03:02:45;;;;;;;29.35;14.35;;;154.20;2176.00;;;;;;5135326;27;20021;-73
2021/01/22 03:05:16;;;;;;;25.58;13.55;;;154.20;2176.00;;;;;;5135197;27;20019;-74
2021/01/22 03:07:57;;;;;;;24.35;13.95;;;154.10;2201.60;;;;;;5135160;27;20019;-74
2021/01/22 03:10:26;;;;;;;20.57;11.97;;;154.10;2176.00;;;;;;5135350;27;20038;-73
2021/01/22 03:12:56;;;;;;;23.97;12.77;;;154.00;2176.00;;;;;;5135331;27;20374;-73
2021/01/22 03:15:22;;;;;;;23.23;12.70;;;154.00;2176.00;;;;;;5134940;27;20027;-73
2021/01/22 03:17:48;;;;;;;21.60;12.10;;;154.00;2176.00;;;;;;5135230;27;20368;-73
2021/01/22 03:20:20;;;;;;;21.02;12.43;;;154.00;2176.00;;;;;;5134894;27;20495;-73
2021/01/22 03:22:46;;;;;;;24.58;12.85;;;154.00;2176.00;;;;;;5134866;27;20106;-73
2021/01/22 03:25:13;;;;;;;20.27;11.95;;;154.00;2176.00;;;;;;5134846;27;20432;-73
2021/01/22 03:27:42;;;;;;;22.73;11.60;;;154.00;2176.00;;;;;;5133476;27;20059;-73
2021/01/22 03:30:08;;;;;;;22.05;11.82;;;154.00;2176.00;;;;;;5134668;27;20039;-73
2021/01/22 03:32:34;;;;;;;24.08;11.65;;;154.00;2176.00;;;;;;5133402;27;20084;-74
2021/01/22 03:35:00;;;;;;;18.92;10.52;;;154.00;2176.00;;;;;;5133419;27;20031;-73
2021/01/22 03:37:26;;;;;;;19.73;11.40;;;154.00;2176.00;;;;;;5134938;27;20019;-73
2021/01/22 03:39:52;;;;;;;20.38;11.57;;;154.00;2176.00;;;;;;5134556;27;20027;-76
2021/01/22 03:42:18;;;;;;;20.13;11.73;;;153.90;2176.00;;;;;;5134585;27;20019;-73
2021/01/22 03:44:44;;;;;;;19.17;11.63;;;153.90;2176.00;;;;;;5133106;27;20034;-73
2021/01/22 03:47:10;;;;;;;26.13;11.40;;;153.90;2176.00;;;;;;5133279;27;20027;-73
2021/01/22 03:49:35;;;;;;;20.33;10.60;;;153.90;2176.00;;;;;;5134378;27;20111;-73
2021/01/22 03:52:02;;;;;;;15.63;9.80;;;153.90;2176.00;;;;;;5134556;28;20023;-73
2021/01/22 03:54:28;;;;;;;16.20;9.30;;;153.90;2176.00;;;;;;5134451;28;20034;-73
2021/01/22 03:56:56;;;;;;;19.27;9.33;;;153.90;2176.00;;;;;;5134403;28;20019;-74
2021/01/22 03:59:22;;;;;;;16.52;9.35;;;153.90;2176.00;;;;;;5134239;28;20047;-73
2021/01/22 04:01:48;;;;;;;17.93;8.57;;;154.00;2176.00;;;;;;5134370;28;20042;-74
2021/01/22 04:04:14;;;;;;;15.73;9.02;;;154.00;2176.00;;;;;;5134346;28;20498;-74
2021/01/22 04:06:39;;;;;;;16.20;9.30;;;154.00;2150.40;;;;;;5134340;28;20076;-73
2021/01/22 04:09:06;;;;;;;15.50;8.98;;;154.00;2150.40;;;;;;5132964;28;20024;-73
2021/01/22 04:11:32;;;;;;;14.82;8.93;;;154.00;2150.40;;;;;;5134500;28;20055;-74
2021/01/22 04:13:58;;;;;;;18.52;8.93;;;154.00;2150.40;;;;;;5134225;28;20386;-73
2021/01/22 04:16:24;;;;;;;15.38;8.63;;;154.00;2150.40;;;;;;5134236;28;20113;-73
2021/01/22 04:18:50;;;;;;;19.67;8.38;;;154.00;2150.40;;;;;;5132966;28;20054;-73
2021/01/22 04:21:16;;;;;;;13.23;7.50;;;154.00;2150.40;;;;;;5134227;28;20045;-74
2021/01/22 04:23:42;;;;;;;14.23;8.00;;;154.00;2150.40;;;;;;5132920;28;20030;-74
2021/01/22 04:26:08;;;;;;;15.35;7.28;;;154.00;2150.40;;;;;;5134148;28;20027;-73
2021/01/22 04:28:33;;;;;;;17.37;7.27;;;154.00;2150.40;;;;;;5130709;28;20069;-73
2021/01/22 04:30:59;;;;;;;17.13;8.25;;;154.00;2150.40;;;;;;5134044;28;20383;-73
2021/01/22 04:33:25;;;;;;;15.40;7.80;;;153.90;2150.40;;;;;;5133112;28;20417;-73
2021/01/22 04:35:51;;;;;;;17.30;8.50;;;153.90;2150.40;;;;;;5132714;28;20023;-74
2021/01/22 04:38:18;;;;;;;16.70;7.88;;;154.00;2150.40;;;;;;5132731;28;20114;-73
2021/01/22 04:40:44;;;;;;;18.90;9.02;;;154.00;2150.40;;;;;;5132737;28;20105;-73
2021/01/22 04:43:10;;;;;;;15.80;7.85;;;153.90;2150.40;;;;;;5132704;28;20472;-73
2021/01/22 04:45:37;;;;;;;13.90;7.50;;;154.20;2150.40;;;;;;5134219;27;20016;-74
2021/01/22 04:48:05;;;;;;;14.15;7.95;;;153.90;2150.40;;;;;;5133901;28;20071;-74
2021/01/22 04:50:31;;;;;;;20.05;8.40;;;153.90;2150.40;;;;;;5133885;27;20028;-74
2021/01/22 04:53:02;;;;;;;17.88;9.23;;;153.80;2176.00;;;;;;5132684;28;20099;-73
2021/01/22 04:55:31;;;;;;;18.37;10.10;;;153.70;2176.00;;;;;;5132743;27;20024;-73
2021/01/22 04:58:00;;;;;;;21.90;12.27;;;153.70;2176.00;;;;;;5137262;27;20026;-73
2021/01/22 05:00:26;;;;;;;25.90;12.27;;;153.60;2176.00;;;;;;5136179;27;20043;-74
2021/01/22 05:02:53;;;;;;;23.52;12.48;;;153.60;2176.00;;;;;;5136275;27;20108;-73
2021/01/22 05:05:20;;;;;;;25.98;11.82;;;153.60;2176.00;;;;;;5137549;27;20019;-73
2021/01/22 05:07:47;;;;;;;22.08;11.20;;;153.60;2176.00;;;;;;5137646;27;20027;-73
2021/01/22 05:10:12;;;;;;;23.77;11.30;;;128.90;2176.00;;;;;;5136053;27;20046;-73
2021/01/22 05:12:40;;;;;;;20.80;11.80;;;128.90;2176.00;;;;;;5136010;27;20023;-73
2021/01/22 05:15:24;;;;;;;21.60;10.68;;;128.90;2176.00;;;;;;5137342;27;20106;-74
2021/01/22 05:17:58;;;;;;;27.92;13.18;;;128.80;2176.00;;;;;;5137371;27;20476;-73
2021/01/22 05:20:39;;;;;;;24.00;12.02;;;128.80;2201.60;;;;;;5137520;27;20534;-74
2021/01/22 05:23:09;;;;;;;30.02;13.27;;;128.80;2201.60;;;;;;5135864;27;20487;-73
2021/01/22 05:25:58;;;;;;;25.97;11.57;;;128.80;2201.60;;;;;;5137482;27;20019;-73
2021/01/22 05:28:37;;;;;;;29.57;12.57;;;128.80;2201.60;;;;;;5136969;27;20510;-73
2021/01/22 05:31:05;;;;;;;21.65;10.45;;;128.70;2201.60;;;;;;5135769;27;20498;-73
2021/01/22 05:33:31;;;;;;;24.35;10.38;;;128.80;2201.60;;;;;;5137136;27;20023;-76
2021/01/22 05:35:57;;;;;;;21.13;11.17;;;128.80;2201.60;;;;;;5135596;27;20027;-74
2021/01/22 05:38:39;;;;;;;22.00;10.23;;;128.80;2201.60;;;;;;5136871;27;20020;-73
2021/01/22 05:41:08;;;;;;;16.75;10.18;;;128.70;2201.60;;;;;;5135909;27;20402;-74
2021/01/22 05:43:38;;;;;;;20.98;10.43;;;128.80;2201.60;;;;;;5136754;27;20399;-73
2021/01/22 05:46:11;;;;;;;22.50;10.63;;;128.80;2201.60;;;;;;5135426;27;20024;-73
2021/01/22 05:48:38;;;;;;;21.63;11.40;;;128.80;2201.60;;;;;;5135348;27;20371;-73
2021/01/22 05:51:04;;;;;;;23.20;14.10;;;128.80;2201.60;;;;;;5135378;27;20035;-74
2021/01/22 05:53:30;;;;;;;28.73;14.70;;;128.80;2176.00;;;;;;5135260;27;20023;-73
2021/01/22 05:56:08;;;;;;;28.57;17.53;;;128.90;2201.60;;;;;;5136537;27;20539;-74
2021/01/22 05:58:36;;;;;;;32.28;18.90;;;128.90;2176.00;;;;;;5136244;27;20066;-73
2021/01/22 06:01:10;;;;;;;35.20;15.67;;;128.90;2176.00;;;;;;5136602;27;20023;-73
2021/01/22 06:03:37;;;;;;;42.40;18.77;;;128.90;2176.00;;;;;;5135113;27;20023;-73
2021/01/22 06:06:04;;;;;;;32.45;15.30;;;128.90;2176.00;;;;;;5135025;27;20027;-73
2021/01/22 06:08:30;;;;;;;32.08;15.07;;;153.60;2176.00;;;;;;5134879;27;20102;-74
2021/01/22 06:10:59;;;;;;;32.90;14.50;;;153.60;2176.00;;;;;;5134973;27;20122;-73
2021/01/22 06:13:30;;;;;;;26.83;13.88;;;153.60;2176.00;;;;;;5136117;27;20054;-73
2021/01/22 06:15:58;;;;;;;34.25;14.65;;;153.60;2176.00;;;;;;5136086;27;20023;-73
2021/01/22 06:18:31;;;;;;;28.33;15.20;;;153.60;2176.00;;;;;;5134741;27;20062;-73
2021/01/22 06:21:23;;;;;;;27.70;15.25;;;153.60;2176.00;;;;;;5134768;27;20356;-73
2021/01/22 06:23:51;;;;;;;25.48;14.43;;;153.60;2176.00;;;;;;5105984;27;20102;-74
2021/01/22 06:26:18;;;;;;;35.17;17.40;;;153.60;2176.00;;;;;;5134686;27;20055;-73
2021/01/22 06:28:44;;;;;;;32.70;15.40;;;153.70;2176.00;;;;;;5135757;27;20409;-73
2021/01/22 06:31:10;;;;;;;34.88;15.35;;;153.70;2150.40;;;;;;5134526;27;20054;-74
2021/01/22 06:33:37;;;;;;;27.15;14.23;;;153.70;2150.40;;;;;;5134453;27;20061;-73
2021/01/22 06:36:09;;;;;;;21.77;11.23;;;153.80;2150.40;;;;;;5135750;27;20495;-74
2021/01/22 06:38:36;;;;;;;34.17;15.02;;;153.90;2150.40;;;;;;5135965;27;20421;-73
2021/01/22 06:41:02;;;;;;;34.20;15.70;;;153.90;2150.40;;;;;;5135628;27;20117;-73
2021/01/22 06:43:28;;;;;;;31.80;14.50;;;153.90;2150.40;;;;;;5135571;27;20023;-77
2021/01/22 06:46:04;;;;;;;35.95;16.33;;;154.00;2124.80;;;;;;5135467;27;20099;-74
2021/01/22 06:48:48;;;;;;;34.78;15.02;;;154.10;2124.80;;;;;;5134134;27;20023;-73
2021/01/22 06:51:15;;;;;;;39.38;18.38;;;154.20;2124.80;;;;;;5134264;27;20110;-73
2021/01/22 06:54:08;;;;;;;31.08;13.68;;;154.20;2124.80;;;;;;5134078;27;20076;-73
2021/01/22 06:56:57;;;;;;;35.92;15.65;;;154.20;2124.80;;;;;;5130271;27;20032;-73
2021/01/22 06:59:40;;;;;;;31.20;15.73;;;154.20;2124.80;;;;;;5135012;27;20115;-73
2021/01/22 07:02:35;;;;;;;43.75;16.98;;;154.20;2124.80;;;;;;5133948;27;20463;-73
2021/01/22 07:05:01;;;;;;;32.05;16.02;;;154.20;2124.80;;;;;;5135188;27;20019;-73
2021/01/22 07:07:46;;;;;;;44.45;21.63;;;154.30;2124.80;;;;;;5133818;27;20386;-74
2021/01/22 07:10:13;;;;;;;38.25;19.27;;;154.30;2124.80;;;;;;5133730;27;20123;-73
2021/01/22 07:12:40;;;;;;;40.67;18.83;;;154.30;2124.80;;;;;;5135056;27;20054;-74
2021/01/22 07:15:29;;;;;;;37.50;18.17;;;154.40;2124.80;;;;;;5133734;27;20031;-73
2021/01/22 07:17:58;;;;;;;47.40;22.20;;;154.40;2124.80;;;;;;5125578;27;20023;-73
2021/01/22 07:20:28;;;;;;;47.65;23.95;;;154.40;2124.80;;;;;;5133228;27;20030;-75
2021/01/22 07:23:01;;;;;;;53.70;25.05;;;154.40;2124.80;;;;;;5134857;27;20050;-74
2021/01/22 07:25:37;;;;;;;64.05;27.83;;;154.50;2124.80;;;;;;5133648;27;20027;-74
2021/01/22 07:28:05;;;;;;;59.30;28.73;;;154.50;2099.20;;;;;;5134812;27;20019;-73
2021/01/22 07:30:39;;;;;;;53.63;24.83;;;179.20;2099.20;;;;;;5133360;27;20035;-74
2021/01/22 07:33:26;;;;;;;42.63;20.40;;;179.20;2099.20;;;;;;5135022;27;20065;-73
2021/01/22 07:36:19;;;;;;;41.75;19.88;;;179.30;2099.20;;;;;;5133397;27;20030;-73
2021/01/22 07:38:50;;;;;;;51.95;22.38;;;179.30;2099.20;;;;;;5133379;27;20028;-73
2021/01/22 07:41:21;;;;;;;39.95;20.55;;;179.40;2099.20;;;;;;5134615;27;20446;-73
2021/01/22 07:44:00;;;;;;;38.55;18.33;;;179.40;2099.20;;;;;;5133308;27;20027;-73
2021/01/22 07:46:26;;;;;;;50.95;22.45;;;179.50;2099.20;;;;;;5133299;27;20038;-73
2021/01/22 07:48:52;;;;;;;52.22;24.90;;;179.60;2099.20;;;;;;5133130;27;20023;-73
2021/01/22 07:51:36;;;;;;;42.80;21.30;;;179.70;2099.20;;;;;;5133248;27;20032;-73
2021/01/22 07:54:03;;;;;;;35.13;18.73;;;179.70;2073.60;;;;;;5133196;28;20043;-73
2021/01/22 07:56:39;;;;;;;35.15;15.00;;;179.80;2073.60;;;;;;5134451;27;20022;-73
2021/01/22 07:59:06;;;;;;;25.05;12.95;;;179.90;2073.60;;;;;;5134280;27;20039;-73
2021/01/22 08:01:33;;;;;;;25.13;13.88;;;180.00;2073.60;;;;;;5134277;27;20031;-73
2021/01/22 08:04:00;;;;;;;32.20;15.55;;;180.00;2073.60;;;;;;5132995;28;20110;-73
2021/01/22 08:06:26;;;;;;;34.95;17.42;;;180.00;2073.60;;;;;;5132970;28;20109;-73
2021/01/22 08:09:05;;;;;;;34.13;17.25;;;180.10;2073.60;;;;;;5134319;27;20128;-73
2021/01/22 08:11:31;;;;;;;44.47;22.08;;;180.10;2048.00;;;;;;5132996;28;20073;-73
2021/01/22 08:13:56;;;;;;;60.22;24.00;;;204.80;2073.60;;;;;;5134232;27;20019;-74
2021/01/22 08:16:23;;;;;;;54.78;25.02;;;204.80;2048.00;;;;;;5132920;28;20463;-73
2021/01/22 08:18:53;;;;;;;46.78;20.45;;;204.80;2048.00;;;;;;5132937;28;20029;-74
2021/01/22 08:21:22;;;;;;;38.40;17.58;;;204.80;2073.60;;;;;;5134464;28;20015;-73
2021/01/22 08:23:48;;;;;;;34.35;16.67;;;204.80;2073.60;;;;;;5134199;27;20083;-73
2021/01/22 08:26:15;;;;;;;39.25;16.02;;;204.80;2073.60;;;;;;5134205;27;20030;-73
2021/01/22 08:28:42;;;;;;;42.88;18.10;;;204.90;2073.60;;;;;;5132731;28;20471;-73
2021/01/22 08:31:10;;;;;;;43.80;18.92;;;204.90;2073.60;;;;;;5133414;27;20027;-73
2021/01/22 08:33:36;;;;;;;45.75;22.50;;;205.00;2073.60;;;;;;5138060;27;20026;-73
2021/01/22 08:36:05;;;;;;;47.55;23.33;;;205.10;2073.60;;;;;;5136814;27;20471;-76
2021/01/22 08:38:31;;;;;;;42.85;22.77;;;205.10;2073.60;;;;;;5137955;27;20015;-73
2021/01/22 08:40:57;;;;;;;38.65;22.45;;;205.20;2073.60;;;;;;5138056;27;20430;-74
2021/01/22 08:43:24;;;;;;;29.52;18.02;;;205.30;2048.00;;;;;;5136699;27;20046;-73
2021/01/22 08:46:12;;;;;;;39.17;22.75;;;205.30;2048.00;;;;;;5137862;27;20023;-73
2021/01/22 08:48:38;;;;;;;103.28;62.58;;;205.50;2048.00;;;;;;5137757;27;20034;-73
2021/01/22 08:51:06;;;;;;;100.63;60.35;;;205.50;2048.00;;;;;;5136546;27;20034;-76
2021/01/22 08:53:33;;;;;;;60.95;35.30;;;205.60;2022.40;;;;;;5137793;27;20023;-73
2021/01/22 08:56:12;;;;;;;150.30;79.25;;;205.40;2022.40;;;;;;5136376;27;20364;-73
2021/01/22 08:58:59;;;;;;;114.45;58.72;;;205.70;2022.40;;;;;;5137479;27;20039;-73
2021/01/22 09:01:50;;;;;;;173.57;86.65;;;230.40;2022.40;;;;;;5136202;27;20035;-74
2021/01/22 09:04:34;;;;;;;144.82;66.50;;;230.70;1996.80;;;;;;5137507;27;20023;-73
2021/01/22 09:07:17;;;;;;;140.23;63.60;;;230.70;1996.80;;;;;;5136174;27;20435;-73
2021/01/22 09:09:49;;;;;;;333.27;153.57;;;230.70;1996.80;;;;;;5136079;27;20035;-73
2021/01/22 09:12:18;;;;;;;199.88;93.20;;;230.80;1996.80;;;;;;5135964;27;20015;-73
2021/01/22 09:15:05;;;;;;;129.05;61.45;;;230.80;1996.80;;;;;;5136034;27;20023;-73
2021/01/22 09:17:45;;;;;;;75.63;39.33;;;230.90;1996.80;;;;;;5136077;27;20023;-73
2021/01/22 09:20:15;;;;;;;42.92;25.15;;;231.00;1996.80;;;;;;5135920;27;20072;-73
2021/01/22 09:22:43;;;;;;;52.78;28.05;;;231.00;1971.20;;;;;;5137142;27;20019;-73
2021/01/22 09:25:15;;;;;;;62.83;34.10;;;231.20;1971.20;;;;;;5137152;27;20030;-73
2021/01/22 09:27:44;;;;;;;88.63;44.95;;;231.30;1971.20;;;;;;5135672;27;20026;-74
2021/01/22 09:30:12;;;;;;;114.50;57.75;;;256.00;1971.20;;;;;;5135492;27;20027;-73
2021/01/22 09:32:39;;;;;;;68.53;29.42;;;256.10;1971.20;;;;;;5136868;27;20471;-74
2021/01/22 09:35:06;;;;;;;62.83;31.60;;;256.10;1945.60;;;;;;5135571;27;20483;-73
2021/01/22 09:37:32;;;;;;;95.32;47.65;;;256.20;1945.60;;;;;;5135549;27;20024;-73
2021/01/22 09:39:58;;;;;;;64.90;30.55;;;256.40;1971.20;;;;;;5136508;27;20015;-74
2021/01/22 09:42:24;;;;;;;62.85;30.00;;;256.40;1945.60;;;;;;5136277;27;20382;-74
2021/01/22 09:44:50;;;;;;;60.65;30.23;;;256.50;1945.60;;;;;;5136767;27;20030;-73
2021/01/22 09:47:16;;;;;;;70.50;34.13;;;256.60;1945.60;;;;;;5136767;27;20755;-74
2021/01/22 09:49:42;;;;;;;108.78;59.33;;;256.60;1945.60;;;;;;5135177;27;20538;-73
2021/01/22 09:52:08;;;;;;;112.95;61.78;;;256.60;1945.60;;;;;;5135179;27;20027;-72
2021/01/22 09:54:33;;;;;;;52.47;27.45;;;256.60;1945.60;;;;;;5136618;27;20498;-73
2021/01/22 09:56:59;;;;;;;77.15;40.50;;;256.60;1945.60;;;;;;5135220;27;20019;-73
2021/01/22 09:59:25;;;;;;;57.17;31.20;;;256.70;1945.60;;;;;;5136306;27;20047;-73
2021/01/22 10:01:51;;;;;;;47.58;26.52;;;256.80;1945.60;;;;;;5136442;27;20019;-73
2021/01/22 10:04:17;;;;;;;41.47;22.23;;;256.90;1920.00;;;;;;5136265;27;20019;-73
2021/01/22 10:06:43;;;;;;;47.25;25.05;;;256.90;1920.00;;;;;;5134977;27;20407;-73
2021/01/22 10:09:10;;;;;;;48.17;22.27;;;281.60;1945.60;;;;;;5134987;27;20110;-73
2021/01/22 10:11:39;;;;;;;51.08;21.80;;;281.60;1945.60;;;;;;5136122;27;20098;-73
2021/01/22 10:14:06;;;;;;;49.15;24.00;;;281.70;1945.60;;;;;;5134684;27;20376;-73
2021/01/22 10:16:33;;;;;;;55.45;26.40;;;281.80;1945.60;;;;;;5134833;27;20027;-72
2021/01/22 10:18:59;;;;;;;39.28;17.58;;;282.00;1945.60;;;;;;5135926;27;20388;-73
2021/01/22 10:21:25;;;;;;;33.88;17.48;;;282.10;1920.00;;;;;;5135915;27;20030;-73
2021/01/22 10:23:52;;;;;;;38.70;19.40;;;282.20;1920.00;;;;;;5135983;27;20019;-73
2021/01/22 10:26:23;;;;;;;37.90;17.60;;;282.20;1920.00;;;;;;5135880;27;20011;-72
2021/01/22 10:28:50;;;;;;;41.38;20.65;;;282.20;1920.00;;;;;;5135770;27;20029;-73
2021/01/22 10:31:16;;;;;;;41.35;19.45;;;282.20;1945.60;;;;;;5135462;27;20031;-74
2021/01/22 10:33:43;;;;;;;39.03;19.67;;;282.10;1945.60;;;;;;5135679;27;20026;-75
2021/01/22 10:36:09;;;;;;;42.40;18.70;;;282.10;1945.60;;;;;;5135085;27;20085;-76
2021/01/22 10:38:35;;;;;;;49.35;21.77;;;282.10;1945.60;;;;;;5134271;27;20417;-75
2021/01/22 10:41:01;;;;;;;49.15;21.42;;;282.10;1971.20;;;;;;5135457;27;20444;-76
2021/01/22 10:43:28;;;;;;;58.55;23.77;;;282.10;1971.20;;;;;;5135547;27;20023;-76
2021/01/22 10:45:54;;;;;;;49.10;21.52;;;282.10;1971.20;;;;;;5135500;27;20019;-75
2021/01/22 10:48:20;;;;;;;45.97;19.10;;;282.10;1971.20;;;;;;5135426;27;20111;-84
2021/01/22 10:50:46;;;;;;;45.45;21.58;;;282.00;1971.20;;;;;;5134069;27;20122;-73
2021/01/22 10:53:13;;;;;;;55.38;21.17;;;282.00;1996.80;;;;;;5133928;27;20030;-75
2021/01/22 10:55:38;;;;;;;49.80;21.83;;;281.90;1996.80;;;;;;5134709;27;20027;-75
2021/01/22 10:58:04;;;;;;;52.47;26.58;;;281.90;1996.80;;;;;;5135302;27;20022;-74
2021/01/22 11:00:32;;;;;;;56.08;25.42;;;282.00;1996.80;;;;;;5123199;27;20047;-76
2021/01/22 11:02:59;;;;;;;52.90;24.00;;;282.00;1996.80;;;;;;5132024;27;20026;-76
2021/01/22 11:05:25;;;;;;;48.95;21.55;;;282.00;2022.40;;;;;;5132279;27;20075;-76
2021/01/22 11:07:51;;;;;;;49.47;21.70;;;282.10;2022.40;;;;;;5133471;27;20092;-76
2021/01/22 11:10:17;;;;;;;43.75;20.80;;;282.10;2022.40;;;;;;5132272;27;20486;-75
2021/01/22 11:12:43;;;;;;;38.00;18.60;;;282.20;1996.80;;;;;;5133414;27;20026;-76
2021/01/22 11:15:09;;;;;;;35.25;20.20;;;282.30;1996.80;;;;;;5133760;27;20015;-77
2021/01/22 11:17:35;;;;;;;37.08;18.05;;;282.50;1971.20;;;;;;5132161;27;20110;-76
2021/01/22 11:20:02;;;;;;;29.83;16.40;;;307.30;1971.20;;;;;;5133847;27;20573;-76
2021/01/22 11:22:33;;;;;;;32.17;15.95;;;307.40;1971.20;;;;;;5131768;27;20023;-76
2021/01/22 11:24:58;;;;;;;29.60;14.48;;;307.40;1945.60;;;;;;5133536;27;20019;-75
2021/01/22 11:27:25;;;;;;;24.92;12.93;;;307.40;1971.20;;;;;;5131995;27;20023;-76
2021/01/22 11:29:52;;;;;;;36.45;17.23;;;307.40;1945.60;;;;;;5133270;27;20027;-76
2021/01/22 11:32:18;;;;;;;34.80;16.67;;;307.70;1945.60;;;;;;5131749;27;20026;-77
2021/01/22 11:34:44;;;;;;;27.77;13.68;;;307.70;1920.00;;;;;;5131756;27;20027;-76
2021/01/22 11:37:10;;;;;;;31.00;14.55;;;307.80;1920.00;;;;;;5133885;27;20015;-77
2021/01/22 11:39:37;;;;;;;31.70;14.68;;;307.90;1920.00;;;;;;5133095;27;20371;-75
2021/01/22 11:42:12;;;;;;;32.25;13.55;;;307.90;1920.00;;;;;;5132774;27;20376;-75
2021/01/22 11:44:38;;;;;;;29.80;13.48;;;307.90;1920.00;;;;;;5132649;27;20015;-76
2021/01/22 11:47:04;;;;;;;38.85;16.48;;;307.90;1920.00;;;;;;5133225;27;20023;-77
2021/01/22 11:49:30;;;;;;;53.53;25.58;;;307.90;1920.00;;;;;;5132701;27;20387;-76
2021/01/22 11:51:56;;;;;;;56.90;28.42;;;307.80;1920.00;;;;;;5131833;27;20110;-76
2021/01/22 11:54:21;;;;;;;55.38;25.17;;;308.00;1920.00;;;;;;5131367;28;20111;-75
2021/01/22 11:56:50;;;;;;;41.10;20.27;;;308.10;1920.00;;;;;;5132708;28;20020;-76
2021/01/22 11:59:19;;;;;;;29.83;13.77;;;308.10;1920.00;;;;;;5131185;28;20046;-75
2021/01/22 12:01:45;;;;;;;31.35;16.75;;;332.80;1945.60;;;;;;5132609;27;20075;-77
2021/01/22 12:04:11;;;;;;;32.58;15.05;;;332.90;1945.60;;;;;;5132607;27;20028;-77
2021/01/22 12:06:37;;;;;;;29.85;15.63;;;333.00;1945.60;;;;;;5134571;27;20019;-75
2021/01/22 12:09:05;;;;;;;44.58;21.42;;;333.10;1945.60;;;;;;5137286;27;20023;-77